Sim-Planet VA

Sim-Planet Nouvel Horizon. By: Anthony Pay
Since 2020.




 METAR ET TAF INFORMATION
METAR FOR LEIB
ADDS - METARS form results

(2038 UTC 28 January 2022)
Data provider http://aviationweather.gov/metar/data/
 
METAR text: LEIB 282030Z VRB01KT CAVOK 05/02 Q1031 NOSIG
Conditions at: LEIB (IBIZA/ES CODOLA , ES) observed 2030 UTC 28 January 2022
Temperature: 5.0°C (41°F)
Dewpoint: 2.0°C (36°F) [RH = 81%]
Pressure (altimeter): 30.44 inches Hg (1031.0 mb)
Winds: variable direction winds at 1 MPH (1 knots; 0.5 m/s)
Visibility: 6 or more miles (10+ km)
Ceiling: ceiling and visibility are OK
Clouds: unknown
Weather: no significant weather observed at this time

METAR text: LEIB 282000Z VRB01KT CAVOK 07/02 Q1031 NOSIG
Conditions at: LEIB (IBIZA/ES CODOLA , ES) observed 2000 UTC 28 January 2022
Temperature: 7.0°C (45°F)
Dewpoint: 2.0°C (36°F) [RH = 70%]
Pressure (altimeter): 30.44 inches Hg (1031.0 mb)
Winds: variable direction winds at 1 MPH (1 knots; 0.5 m/s)
Visibility: 6 or more miles (10+ km)
Ceiling: ceiling and visibility are OK
Clouds: unknown
Weather: no significant weather observed at this time

Forecast for: LEIB (IBIZA/ES CODOLA , ES)
Text: TAF LEIB 282000Z 2821/2921 VRB04KT CAVOK TX16/2912Z TN05/2906Z
Forecast period: 2100 to 2200 UTC 28 January 2022
Forecast type: FROM: standard forecast or significant change
Winds: variable direction winds at 5 MPH (4 knots; 2.1 m/s)
Visibility: 6 or more miles (10+ km)
Ceiling: unknown
Clouds: missing
Weather: no significant weather forecast for this period
Text: BECMG 2822/2824 01009KT
Forecast period: 2200 UTC 28 January 2022 to 2100 UTC 29 January 2022
Forecast type: BECOMING: Conditions expected to become as follows by 0000 UTC 29 January 2022
Winds: from the N (10 degrees) at 10 MPH (9 knots; 4.6 m/s)
Visibility: 6 or more miles (10+ km)
Ceiling: unknown
Clouds: missing
Weather: no significant weather forecast for this period
Text: PROB30 2905/2908 3000 BR
Forecast period: 0500 to 0800 UTC 29 January 2022
Forecast type: PROBABLE: 30 percent likelihood of the following during this time
Visibility: 1.86 miles (2.99 km)
Ceiling: unknown
Clouds: missing
Weather: BR  (mist)

 AÉROPORT DE AÉROPORT

 INFORMATIONS DE PISTE
Piste 06 Longueur de la piste 9186 ft Largeur de la piste 148 ft
Élévation de la piste 13 ft Seuil de la piste déplacés 0 ft Runway heading 62
Piste 24 Longueur de la piste 9186 ft Largeur de la piste 148 ft
Élévation de la piste 16 ft Seuil de la piste déplacés 0 ft Runway heading 242

 AÉROPORT FRÉQUENCES
Type APP Nom PALMA APP Féquence 118.125 MHZ
Type APP Nom APP Féquence 119.8 MHZ
Type ATIS Nom ATIS Féquence 117.8 MHZ
Type GND Nom GND Féquence 121.8 MHZ
Type TWR Nom TWR Féquence 118.5 MHZ

 SIDA DE NAVIGATION
Type VOR-DME Nom Ibiza Féquence 117800 KHZ
Type NDB Nom Ibiza Féquence 394 KHZ

Nos Partenaires